sensor_id;sensor_type;location;lat;lon;timestamp;temperature;humidity
22917;DHT22;11624;53.250;7.456;2023-04-03T00:01:26;8.46;43.33
22917;DHT22;11624;53.250;7.456;2023-04-03T00:03:55;8.41;43.64
22917;DHT22;11624;53.250;7.456;2023-04-03T00:06:24;8.42;43.60
22917;DHT22;11624;53.250;7.456;2023-04-03T00:08:53;8.36;43.74
22917;DHT22;11624;53.250;7.456;2023-04-03T00:11:21;8.30;44.09
22917;DHT22;11624;53.250;7.456;2023-04-03T00:13:50;8.21;44.42
22917;DHT22;11624;53.250;7.456;2023-04-03T00:16:19;8.22;44.44
22917;DHT22;11624;53.250;7.456;2023-04-03T00:18:47;8.20;44.51
22917;DHT22;11624;53.250;7.456;2023-04-03T00:21:15;8.20;44.46
22917;DHT22;11624;53.250;7.456;2023-04-03T00:23:43;8.23;44.51
22917;DHT22;11624;53.250;7.456;2023-04-03T00:26:11;8.17;44.80
22917;DHT22;11624;53.250;7.456;2023-04-03T00:28:40;8.06;45.19
22917;DHT22;11624;53.250;7.456;2023-04-03T00:31:09;8.01;45.39
22917;DHT22;11624;53.250;7.456;2023-04-03T00:33:37;8.05;45.26
22917;DHT22;11624;53.250;7.456;2023-04-03T00:36:06;8.06;45.22
22917;DHT22;11624;53.250;7.456;2023-04-03T00:38:36;7.94;45.67
22917;DHT22;11624;53.250;7.456;2023-04-03T00:41:05;7.97;45.65
22917;DHT22;11624;53.250;7.456;2023-04-03T00:43:33;7.94;45.67
22917;DHT22;11624;53.250;7.456;2023-04-03T00:46:01;7.91;45.82
22917;DHT22;11624;53.250;7.456;2023-04-03T00:48:33;7.90;45.75
22917;DHT22;11624;53.250;7.456;2023-04-03T00:51:04;7.94;45.73
22917;DHT22;11624;53.250;7.456;2023-04-03T00:53:37;7.91;45.91
22917;DHT22;11624;53.250;7.456;2023-04-03T00:56:09;7.87;45.92
22917;DHT22;11624;53.250;7.456;2023-04-03T00:58:42;7.87;46.05
22917;DHT22;11624;53.250;7.456;2023-04-03T01:01:15;7.83;46.13
22917;DHT22;11624;53.250;7.456;2023-04-03T01:03:45;7.82;46.18
22917;DHT22;11624;53.250;7.456;2023-04-03T01:06:16;7.72;46.60
22917;DHT22;11624;53.250;7.456;2023-04-03T01:08:47;7.69;46.64
22917;DHT22;11624;53.250;7.456;2023-04-03T01:11:16;7.64;46.86
22917;DHT22;11624;53.250;7.456;2023-04-03T01:13:45;7.67;46.67
22917;DHT22;11624;53.250;7.456;2023-04-03T01:16:13;7.60;46.99
22917;DHT22;11624;53.250;7.456;2023-04-03T01:18:42;7.60;46.96
22917;DHT22;11624;53.250;7.456;2023-04-03T01:21:49;7.56;46.63
22917;DHT22;11624;53.250;7.456;2023-04-03T01:24:30;7.53;46.65
22917;DHT22;11624;53.250;7.456;2023-04-03T01:27:03;7.56;46.81
22917;DHT22;11624;53.250;7.456;2023-04-03T01:29:32;7.55;46.91
22917;DHT22;11624;53.250;7.456;2023-04-03T01:32:03;7.49;46.88
22917;DHT22;11624;53.250;7.456;2023-04-03T01:34:31;7.46;47.14
22917;DHT22;11624;53.250;7.456;2023-04-03T01:37:00;7.41;47.22
22917;DHT22;11624;53.250;7.456;2023-04-03T01:39:28;7.40;47.21
22917;DHT22;11624;53.250;7.456;2023-04-03T01:41:56;7.34;47.19
22917;DHT22;11624;53.250;7.456;2023-04-03T01:44:30;7.30;47.27
22917;DHT22;11624;53.250;7.456;2023-04-03T01:46:58;7.24;47.47
22917;DHT22;11624;53.250;7.456;2023-04-03T01:49:29;7.22;47.49
22917;DHT22;11624;53.250;7.456;2023-04-03T01:51:58;7.18;47.51
22917;DHT22;11624;53.250;7.456;2023-04-03T01:54:26;7.16;47.47
22917;DHT22;11624;53.250;7.456;2023-04-03T01:56:54;7.13;47.56
22917;DHT22;11624;53.250;7.456;2023-04-03T01:59:22;7.10;47.50
22917;DHT22;11624;53.250;7.456;2023-04-03T02:01:50;7.07;47.46
22917;DHT22;11624;53.250;7.456;2023-04-03T02:04:19;7.02;47.50
22917;DHT22;11624;53.250;7.456;2023-04-03T02:06:48;6.98;47.63
22917;DHT22;11624;53.250;7.456;2023-04-03T02:09:16;6.93;47.64
22917;DHT22;11624;53.250;7.456;2023-04-03T02:11:44;6.88;47.75
22917;DHT22;11624;53.250;7.456;2023-04-03T02:14:13;6.84;48.24
22917;DHT22;11624;53.250;7.456;2023-04-03T02:16:41;6.80;48.64
22917;DHT22;11624;53.250;7.456;2023-04-03T02:19:09;6.72;49.05
22917;DHT22;11624;53.250;7.456;2023-04-03T02:21:37;6.76;49.07
22917;DHT22;11624;53.250;7.456;2023-04-03T02:24:07;6.72;49.47
22917;DHT22;11624;53.250;7.456;2023-04-03T02:26:35;6.69;49.60
22917;DHT22;11624;53.250;7.456;2023-04-03T02:29:04;6.71;49.53
22917;DHT22;11624;53.250;7.456;2023-04-03T02:31:34;6.53;49.94
22917;DHT22;11624;53.250;7.456;2023-04-03T02:34:02;6.36;50.56
22917;DHT22;11624;53.250;7.456;2023-04-03T02:36:30;6.28;50.80
22917;DHT22;11624;53.250;7.456;2023-04-03T02:39:02;6.26;50.80
22917;DHT22;11624;53.250;7.456;2023-04-03T02:41:32;6.24;50.78
22917;DHT22;11624;53.250;7.456;2023-04-03T02:44:06;6.27;50.76
22917;DHT22;11624;53.250;7.456;2023-04-03T02:46:34;6.25;50.80
22917;DHT22;11624;53.250;7.456;2023-04-03T02:49:03;6.23;51.00
22917;DHT22;11624;53.250;7.456;2023-04-03T02:51:32;6.21;50.98
22917;DHT22;11624;53.250;7.456;2023-04-03T02:54:00;6.22;50.87
22917;DHT22;11624;53.250;7.456;2023-04-03T02:56:33;6.22;50.85
22917;DHT22;11624;53.250;7.456;2023-04-03T02:59:02;6.19;50.89
22917;DHT22;11624;53.250;7.456;2023-04-03T03:01:32;6.17;50.96
22917;DHT22;11624;53.250;7.456;2023-04-03T03:04:00;6.15;51.02
22917;DHT22;11624;53.250;7.456;2023-04-03T03:06:28;6.16;51.12
22917;DHT22;11624;53.250;7.456;2023-04-03T03:08:56;6.14;51.20
22917;DHT22;11624;53.250;7.456;2023-04-03T03:11:25;6.10;51.41
22917;DHT22;11624;53.250;7.456;2023-04-03T03:13:54;6.10;51.37
22917;DHT22;11624;53.250;7.456;2023-04-03T03:16:24;6.10;51.29
22917;DHT22;11624;53.250;7.456;2023-04-03T03:18:53;6.10;51.24
22917;DHT22;11624;53.250;7.456;2023-04-03T03:21:23;6.07;51.23
22917;DHT22;11624;53.250;7.456;2023-04-03T03:23:52;6.05;51.16
22917;DHT22;11624;53.250;7.456;2023-04-03T03:26:20;6.05;51.10
22917;DHT22;11624;53.250;7.456;2023-04-03T03:28:48;6.00;51.14
22917;DHT22;11624;53.250;7.456;2023-04-03T03:31:17;5.95;51.30
22917;DHT22;11624;53.250;7.456;2023-04-03T03:33:46;5.92;51.31
22917;DHT22;11624;53.250;7.456;2023-04-03T03:36:14;5.87;51.30
22917;DHT22;11624;53.250;7.456;2023-04-03T03:38:42;5.87;51.35
22917;DHT22;11624;53.250;7.456;2023-04-03T03:41:10;5.87;51.33
22917;DHT22;11624;53.250;7.456;2023-04-03T03:43:40;5.84;51.31
22917;DHT22;11624;53.250;7.456;2023-04-03T03:46:09;5.83;51.30
22917;DHT22;11624;53.250;7.456;2023-04-03T03:48:39;5.79;51.36
22917;DHT22;11624;53.250;7.456;2023-04-03T03:51:07;5.78;51.36
22917;DHT22;11624;53.250;7.456;2023-04-03T03:53:37;5.76;51.40
22917;DHT22;11624;53.250;7.456;2023-04-03T03:56:08;5.76;51.38
22917;DHT22;11624;53.250;7.456;2023-04-03T03:58:39;5.72;51.35
22917;DHT22;11624;53.250;7.456;2023-04-03T04:01:07;5.70;51.41
22917;DHT22;11624;53.250;7.456;2023-04-03T04:03:43;5.67;51.43
22917;DHT22;11624;53.250;7.456;2023-04-03T04:06:15;5.65;51.53
22917;DHT22;11624;53.250;7.456;2023-04-03T04:08:43;5.61;51.69
22917;DHT22;11624;53.250;7.456;2023-04-03T04:11:13;5.61;51.71
22917;DHT22;11624;53.250;7.456;2023-04-03T04:13:43;5.57;51.85
22917;DHT22;11624;53.250;7.456;2023-04-03T04:16:13;5.56;51.85
22917;DHT22;11624;53.250;7.456;2023-04-03T04:18:42;5.56;51.83
22917;DHT22;11624;53.250;7.456;2023-04-03T04:21:10;5.54;51.92
22917;DHT22;11624;53.250;7.456;2023-04-03T04:23:39;5.53;51.95
22917;DHT22;11624;53.250;7.456;2023-04-03T04:26:07;5.53;51.95
22917;DHT22;11624;53.250;7.456;2023-04-03T04:28:37;5.52;51.95
22917;DHT22;11624;53.250;7.456;2023-04-03T04:31:06;5.48;51.95
22917;DHT22;11624;53.250;7.456;2023-04-03T04:33:35;5.45;52.04
22917;DHT22;11624;53.250;7.456;2023-04-03T04:36:06;5.43;52.15
22917;DHT22;11624;53.250;7.456;2023-04-03T04:38:35;5.45;52.17
22917;DHT22;11624;53.250;7.456;2023-04-03T04:41:03;5.41;52.11
22917;DHT22;11624;53.250;7.456;2023-04-03T04:43:31;5.41;52.10
22917;DHT22;11624;53.250;7.456;2023-04-03T04:46:02;5.42;52.12
22917;DHT22;11624;53.250;7.456;2023-04-03T04:48:34;5.39;52.11
22917;DHT22;11624;53.250;7.456;2023-04-03T04:51:06;5.39;52.09
22917;DHT22;11624;53.250;7.456;2023-04-03T04:53:36;5.37;52.11
22917;DHT22;11624;53.250;7.456;2023-04-03T04:56:06;5.35;52.13
22917;DHT22;11624;53.250;7.456;2023-04-03T04:58:36;5.33;52.16
22917;DHT22;11624;53.250;7.456;2023-04-03T05:01:07;5.31;52.12
22917;DHT22;11624;53.250;7.456;2023-04-03T05:03:41;5.30;52.12
22917;DHT22;11624;53.250;7.456;2023-04-03T05:06:11;5.30;52.13
22917;DHT22;11624;53.250;7.456;2023-04-03T05:08:40;5.28;52.18
22917;DHT22;11624;53.250;7.456;2023-04-03T05:11:08;5.27;52.23
22917;DHT22;11624;53.250;7.456;2023-04-03T05:13:37;5.26;52.25
22917;DHT22;11624;53.250;7.456;2023-04-03T05:16:06;5.26;52.29
22917;DHT22;11624;53.250;7.456;2023-04-03T05:18:34;5.26;52.30
22917;DHT22;11624;53.250;7.456;2023-04-03T05:21:07;5.27;52.34
22917;DHT22;11624;53.250;7.456;2023-04-03T05:23:36;5.28;52.37
22917;DHT22;11624;53.250;7.456;2023-04-03T05:26:05;5.27;52.49
22917;DHT22;11624;53.250;7.456;2023-04-03T05:28:34;5.26;52.59
22917;DHT22;11624;53.250;7.456;2023-04-03T05:31:04;5.30;52.59
22917;DHT22;11624;53.250;7.456;2023-04-03T05:33:35;5.32;52.60
22917;DHT22;11624;53.250;7.456;2023-04-03T05:36:06;5.35;52.64
22917;DHT22;11624;53.250;7.456;2023-04-03T05:38:42;5.35;52.73
22917;DHT22;11624;53.250;7.456;2023-04-03T05:41:11;5.37;52.94
22917;DHT22;11624;53.250;7.456;2023-04-03T05:43:39;5.36;53.10
22917;DHT22;11624;53.250;7.456;2023-04-03T05:46:10;5.34;53.42
22917;DHT22;11624;53.250;7.456;2023-04-03T05:48:41;5.40;53.34
22917;DHT22;11624;53.250;7.456;2023-04-03T05:51:15;5.50;53.14
22917;DHT22;11624;53.250;7.456;2023-04-03T05:53:48;5.54;53.20
22917;DHT22;11624;53.250;7.456;2023-04-03T05:56:19;5.54;53.59
22917;DHT22;11624;53.250;7.456;2023-04-03T05:58:47;5.55;53.97
22917;DHT22;11624;53.250;7.456;2023-04-03T06:01:15;5.61;54.11
22917;DHT22;11624;53.250;7.456;2023-04-03T06:03:44;5.68;54.14
22917;DHT22;11624;53.250;7.456;2023-04-03T06:06:13;5.80;54.13
22917;DHT22;11624;53.250;7.456;2023-04-03T06:08:42;5.87;54.20
22917;DHT22;11624;53.250;7.456;2023-04-03T06:11:12;5.92;54.37
22917;DHT22;11624;53.250;7.456;2023-04-03T06:13:41;6.02;54.36
22917;DHT22;11624;53.250;7.456;2023-04-03T06:16:12;6.13;54.28
22917;DHT22;11624;53.250;7.456;2023-04-03T06:18:42;6.20;54.35
22917;DHT22;11624;53.250;7.456;2023-04-03T06:21:11;6.27;54.33
22917;DHT22;11624;53.250;7.456;2023-04-03T06:23:40;6.38;54.30
22917;DHT22;11624;53.250;7.456;2023-04-03T06:26:08;6.44;54.26
22917;DHT22;11624;53.250;7.456;2023-04-03T06:28:38;6.55;54.18
22917;DHT22;11624;53.250;7.456;2023-04-03T06:31:06;6.64;54.29
22917;DHT22;11624;53.250;7.456;2023-04-03T06:33:35;6.71;54.30
22917;DHT22;11624;53.250;7.456;2023-04-03T06:36:04;6.82;54.20
22917;DHT22;11624;53.250;7.456;2023-04-03T06:38:34;6.94;54.13
22917;DHT22;11624;53.250;7.456;2023-04-03T06:41:02;7.04;53.93
22917;DHT22;11624;53.250;7.456;2023-04-03T06:43:31;7.17;53.70
22917;DHT22;11624;53.250;7.456;2023-04-03T06:46:02;7.30;53.65
22917;DHT22;11624;53.250;7.456;2023-04-03T06:48:30;7.43;53.41
22917;DHT22;11624;53.250;7.456;2023-04-03T06:50:58;7.50;53.07
22917;DHT22;11624;53.250;7.456;2023-04-03T06:53:26;7.63;52.70
22917;DHT22;11624;53.250;7.456;2023-04-03T06:55:54;7.78;52.28
22917;DHT22;11624;53.250;7.456;2023-04-03T06:58:22;7.81;51.91
22917;DHT22;11624;53.250;7.456;2023-04-03T07:00:50;7.99;51.53
22917;DHT22;11624;53.250;7.456;2023-04-03T07:03:20;8.11;51.32
22917;DHT22;11624;53.250;7.456;2023-04-03T07:05:48;8.19;50.94
22917;DHT22;11624;53.250;7.456;2023-04-03T07:08:16;8.30;50.69
22917;DHT22;11624;53.250;7.456;2023-04-03T07:10:44;8.41;50.10
22917;DHT22;11624;53.250;7.456;2023-04-03T07:13:12;8.51;49.63
22917;DHT22;11624;53.250;7.456;2023-04-03T07:15:41;8.64;49.53
22917;DHT22;11624;53.250;7.456;2023-04-03T07:18:09;8.76;49.34
22917;DHT22;11624;53.250;7.456;2023-04-03T07:20:39;8.85;48.66
22917;DHT22;11624;53.250;7.456;2023-04-03T07:23:08;8.90;47.67
22917;DHT22;11624;53.250;7.456;2023-04-03T07:25:37;9.30;47.99
22917;DHT22;11624;53.250;7.456;2023-04-03T07:28:09;9.79;46.75
22917;DHT22;11624;53.250;7.456;2023-04-03T07:30:43;10.36;44.29
22917;DHT22;11624;53.250;7.456;2023-04-03T07:33:12;10.78;43.40
22917;DHT22;11624;53.250;7.456;2023-04-03T07:35:43;11.34;42.83
22917;DHT22;11624;53.250;7.456;2023-04-03T07:38:11;11.82;40.91
22917;DHT22;11624;53.250;7.456;2023-04-03T07:40:39;12.17;40.30
22917;DHT22;11624;53.250;7.456;2023-04-03T07:43:08;12.53;39.10
22917;DHT22;11624;53.250;7.456;2023-04-03T07:45:36;12.69;38.12
22917;DHT22;11624;53.250;7.456;2023-04-03T07:48:04;12.62;36.96
22917;DHT22;11624;53.250;7.456;2023-04-03T07:50:33;12.67;36.89
22917;DHT22;11624;53.250;7.456;2023-04-03T07:53:03;12.66;35.94
22917;DHT22;11624;53.250;7.456;2023-04-03T07:55:32;12.80;36.93
22917;DHT22;11624;53.250;7.456;2023-04-03T07:58:00;12.80;35.25
22917;DHT22;11624;53.250;7.456;2023-04-03T08:00:28;12.75;36.50
22917;DHT22;11624;53.250;7.456;2023-04-03T08:02:57;13.01;36.29
22917;DHT22;11624;53.250;7.456;2023-04-03T08:05:25;13.29;35.42
22917;DHT22;11624;53.250;7.456;2023-04-03T08:07:53;13.46;35.00
22917;DHT22;11624;53.250;7.456;2023-04-03T08:10:23;13.49;34.83
22917;DHT22;11624;53.250;7.456;2023-04-03T08:12:51;13.47;34.81
22917;DHT22;11624;53.250;7.456;2023-04-03T08:15:19;13.38;35.11
22917;DHT22;11624;53.250;7.456;2023-04-03T08:17:47;13.10;32.56
22917;DHT22;11624;53.250;7.456;2023-04-03T08:20:16;12.87;34.62
22917;DHT22;11624;53.250;7.456;2023-04-03T08:22:44;13.04;35.59
22917;DHT22;11624;53.250;7.456;2023-04-03T08:25:12;13.20;34.56
22917;DHT22;11624;53.250;7.456;2023-04-03T08:27:42;13.34;35.21
22917;DHT22;11624;53.250;7.456;2023-04-03T08:30:11;13.53;33.54
22917;DHT22;11624;53.250;7.456;2023-04-03T08:32:40;13.39;32.89
22917;DHT22;11624;53.250;7.456;2023-04-03T08:35:10;13.43;33.79
22917;DHT22;11624;53.250;7.456;2023-04-03T08:37:39;13.69;33.58
22917;DHT22;11624;53.250;7.456;2023-04-03T08:40:13;13.83;31.93
22917;DHT22;11624;53.250;7.456;2023-04-03T08:42:54;13.99;32.58
22917;DHT22;11624;53.250;7.456;2023-04-03T08:45:37;13.58;28.50
22917;DHT22;11624;53.250;7.456;2023-04-03T08:48:13;13.26;31.16
22917;DHT22;11624;53.250;7.456;2023-04-03T08:50:44;13.16;30.80
22917;DHT22;11624;53.250;7.456;2023-04-03T08:53:15;13.15;30.31
22917;DHT22;11624;53.250;7.456;2023-04-03T08:55:45;13.23;31.66
22917;DHT22;11624;53.250;7.456;2023-04-03T08:58:18;13.81;30.94
22917;DHT22;11624;53.250;7.456;2023-04-03T09:00:49;14.44;30.00
22917;DHT22;11624;53.250;7.456;2023-04-03T09:03:20;14.94;28.62
22917;DHT22;11624;53.250;7.456;2023-04-03T09:05:52;15.27;27.29
22917;DHT22;11624;53.250;7.456;2023-04-03T09:08:23;15.61;26.63
22917;DHT22;11624;53.250;7.456;2023-04-03T09:10:59;15.83;25.97
22917;DHT22;11624;53.250;7.456;2023-04-03T09:13:34;15.90;26.29
22917;DHT22;11624;53.250;7.456;2023-04-03T09:16:10;15.98;26.22
22917;DHT22;11624;53.250;7.456;2023-04-03T09:18:45;16.40;26.08
22917;DHT22;11624;53.250;7.456;2023-04-03T09:21:20;16.81;24.86
22917;DHT22;11624;53.250;7.456;2023-04-03T09:23:50;17.41;24.12
22917;DHT22;11624;53.250;7.456;2023-04-03T09:26:23;17.84;22.70
22917;DHT22;11624;53.250;7.456;2023-04-03T09:28:57;17.92;22.27
22917;DHT22;11624;53.250;7.456;2023-04-03T09:31:27;18.08;20.95
22917;DHT22;11624;53.250;7.456;2023-04-03T09:34:01;18.28;20.86
22917;DHT22;11624;53.250;7.456;2023-04-03T09:36:44;18.67;20.31
22917;DHT22;11624;53.250;7.456;2023-04-03T09:39:15;18.17;19.44
22917;DHT22;11624;53.250;7.456;2023-04-03T09:41:57;18.09;20.55
22917;DHT22;11624;53.250;7.456;2023-04-03T09:44:29;18.30;19.34
22917;DHT22;11624;53.250;7.456;2023-04-03T09:46:58;18.78;19.83
22917;DHT22;11624;53.250;7.456;2023-04-03T09:49:27;19.20;18.31
22917;DHT22;11624;53.250;7.456;2023-04-03T09:51:55;19.02;16.97
22917;DHT22;11624;53.250;7.456;2023-04-03T09:54:35;18.73;15.45
22917;DHT22;11624;53.250;7.456;2023-04-03T09:57:11;18.77;17.83
22917;DHT22;11624;53.250;7.456;2023-04-03T09:59:45;18.52;16.14
22917;DHT22;11624;53.250;7.456;2023-04-03T10:02:32;18.19;16.66
22917;DHT22;11624;53.250;7.456;2023-04-03T10:05:03;18.46;16.71
22917;DHT22;11624;53.250;7.456;2023-04-03T10:07:37;18.53;15.32
22917;DHT22;11624;53.250;7.456;2023-04-03T10:10:17;18.36;14.13
22917;DHT22;11624;53.250;7.456;2023-04-03T10:12:47;17.97;14.51
22917;DHT22;11624;53.250;7.456;2023-04-03T10:15:17;18.00;16.11
22917;DHT22;11624;53.250;7.456;2023-04-03T10:17:54;18.70;17.76
22917;DHT22;11624;53.250;7.456;2023-04-03T10:20:33;19.61;16.92
22917;DHT22;11624;53.250;7.456;2023-04-03T10:23:15;19.14;13.56
22917;DHT22;11624;53.250;7.456;2023-04-03T10:25:55;18.66;15.36
22917;DHT22;11624;53.250;7.456;2023-04-03T10:28:35;19.10;16.88
22917;DHT22;11624;53.250;7.456;2023-04-03T10:31:11;19.83;16.03
22917;DHT22;11624;53.250;7.456;2023-04-03T10:33:56;20.33;15.01
22917;DHT22;11624;53.250;7.456;2023-04-03T10:36:34;20.81;14.73
22917;DHT22;11624;53.250;7.456;2023-04-03T10:39:11;21.14;14.09
22917;DHT22;11624;53.250;7.456;2023-04-03T10:41:50;21.06;13.65
22917;DHT22;11624;53.250;7.456;2023-04-03T10:44:42;20.68;13.17
22917;DHT22;11624;53.250;7.456;2023-04-03T10:47:20;20.49;13.45
22917;DHT22;11624;53.250;7.456;2023-04-03T10:49:55;20.40;14.63
22917;DHT22;11624;53.250;7.456;2023-04-03T10:52:31;20.68;14.42
22917;DHT22;11624;53.250;7.456;2023-04-03T10:55:19;21.02;13.81
22917;DHT22;11624;53.250;7.456;2023-04-03T10:57:51;21.03;14.40
22917;DHT22;11624;53.250;7.456;2023-04-03T11:00:23;21.45;14.17
22917;DHT22;11624;53.250;7.456;2023-04-03T11:02:57;21.45;13.37
22917;DHT22;11624;53.250;7.456;2023-04-03T11:05:31;21.80;13.20
22917;DHT22;11624;53.250;7.456;2023-04-03T11:08:05;21.89;11.97
22917;DHT22;11624;53.250;7.456;2023-04-03T11:10:41;21.59;12.23
22917;DHT22;11624;53.250;7.456;2023-04-03T11:13:13;21.81;13.04
22917;DHT22;11624;53.250;7.456;2023-04-03T11:15:43;22.34;12.94
22917;DHT22;11624;53.250;7.456;2023-04-03T11:18:17;22.47;12.04
22917;DHT22;11624;53.250;7.456;2023-04-03T11:20:53;21.91;13.52
22917;DHT22;11624;53.250;7.456;2023-04-03T11:23:25;22.20;12.89
22917;DHT22;11624;53.250;7.456;2023-04-03T11:26:09;22.04;12.91
22917;DHT22;11624;53.250;7.456;2023-04-03T11:28:39;22.56;12.75
22917;DHT22;11624;53.250;7.456;2023-04-03T11:31:15;22.56;12.20
22917;DHT22;11624;53.250;7.456;2023-04-03T11:33:55;22.05;12.52
22917;DHT22;11624;53.250;7.456;2023-04-03T11:36:29;22.14;12.98
22917;DHT22;11624;53.250;7.456;2023-04-03T11:39:19;22.48;12.94
22917;DHT22;11624;53.250;7.456;2023-04-03T11:41:49;22.83;12.30
22917;DHT22;11624;53.250;7.456;2023-04-03T11:44:34;22.79;12.78
22917;DHT22;11624;53.250;7.456;2023-04-03T11:47:04;22.94;12.71
22917;DHT22;11624;53.250;7.456;2023-04-03T11:49:58;23.14;12.34
22917;DHT22;11624;53.250;7.456;2023-04-03T11:52:59;22.77;12.82
22917;DHT22;11624;53.250;7.456;2023-04-03T11:55:43;22.79;13.15
22917;DHT22;11624;53.250;7.456;2023-04-03T11:58:14;23.05;13.22
22917;DHT22;11624;53.250;7.456;2023-04-03T12:01:07;23.40;12.88
22917;DHT22;11624;53.250;7.456;2023-04-03T12:06:54;23.08;12.49
22917;DHT22;11624;53.250;7.456;2023-04-03T12:09:29;23.37;13.42
22917;DHT22;11624;53.250;7.456;2023-04-03T12:12:01;23.69;12.41
22917;DHT22;11624;53.250;7.456;2023-04-03T12:14:49;24.03;11.60
22917;DHT22;11624;53.250;7.456;2023-04-03T12:17:22;24.08;12.14
22917;DHT22;11624;53.250;7.456;2023-04-03T12:19:53;23.66;11.94
22917;DHT22;11624;53.250;7.456;2023-04-03T12:22:22;23.92;12.06
22917;DHT22;11624;53.250;7.456;2023-04-03T12:24:52;24.24;12.68
22917;DHT22;11624;53.250;7.456;2023-04-03T12:27:29;24.26;11.87
22917;DHT22;11624;53.250;7.456;2023-04-03T12:30:15;24.34;11.98
22917;DHT22;11624;53.250;7.456;2023-04-03T12:33:04;23.74;12.17
22917;DHT22;11624;53.250;7.456;2023-04-03T12:35:44;23.65;12.78
22917;DHT22;11624;53.250;7.456;2023-04-03T12:41:37;24.18;13.05
22917;DHT22;11624;53.250;7.456;2023-04-03T12:44:22;24.32;11.53
22917;DHT22;11624;53.250;7.456;2023-04-03T12:46:54;23.72;11.86
22917;DHT22;11624;53.250;7.456;2023-04-03T12:49:33;23.75;11.88
22917;DHT22;11624;53.250;7.456;2023-04-03T12:52:05;23.97;11.85
22917;DHT22;11624;53.250;7.456;2023-04-03T12:54:36;22.92;12.20
22917;DHT22;11624;53.250;7.456;2023-04-03T12:57:16;22.81;12.94
22917;DHT22;11624;53.250;7.456;2023-04-03T12:59:45;22.85;12.42
22917;DHT22;11624;53.250;7.456;2023-04-03T13:02:21;23.07;12.56
22917;DHT22;11624;53.250;7.456;2023-04-03T13:04:51;23.15;11.72
22917;DHT22;11624;53.250;7.456;2023-04-03T13:07:24;23.12;12.23
22917;DHT22;11624;53.250;7.456;2023-04-03T13:09:57;22.95;12.00
22917;DHT22;11624;53.250;7.456;2023-04-03T13:12:27;22.80;12.93
22917;DHT22;11624;53.250;7.456;2023-04-03T13:15:00;22.98;12.74
22917;DHT22;11624;53.250;7.456;2023-04-03T13:17:31;22.88;13.42
22917;DHT22;11624;53.250;7.456;2023-04-03T13:20:13;22.43;12.99
22917;DHT22;11624;53.250;7.456;2023-04-03T13:22:48;21.97;12.78
22917;DHT22;11624;53.250;7.456;2023-04-03T13:25:18;22.13;14.24
22917;DHT22;11624;53.250;7.456;2023-04-03T13:27:49;22.51;14.50
22917;DHT22;11624;53.250;7.456;2023-04-03T13:30:27;23.00;12.44
22917;DHT22;11624;53.250;7.456;2023-04-03T13:32:57;23.05;12.39
22917;DHT22;11624;53.250;7.456;2023-04-03T13:35:30;22.64;13.45
22917;DHT22;11624;53.250;7.456;2023-04-03T13:38:00;22.66;13.74
22917;DHT22;11624;53.250;7.456;2023-04-03T13:40:29;22.97;13.21
22917;DHT22;11624;53.250;7.456;2023-04-03T13:43:20;22.81;12.84
22917;DHT22;11624;53.250;7.456;2023-04-03T13:46:05;22.72;13.39
22917;DHT22;11624;53.250;7.456;2023-04-03T13:48:50;22.70;12.43
22917;DHT22;11624;53.250;7.456;2023-04-03T13:51:22;22.66;13.17
22917;DHT22;11624;53.250;7.456;2023-04-03T13:53:53;22.81;12.33
22917;DHT22;11624;53.250;7.456;2023-04-03T13:56:25;22.78;12.28
22917;DHT22;11624;53.250;7.456;2023-04-03T13:59:21;23.18;11.88
22917;DHT22;11624;53.250;7.456;2023-04-03T14:01:52;23.18;11.98
22917;DHT22;11624;53.250;7.456;2023-04-03T14:04:22;22.92;12.55
22917;DHT22;11624;53.250;7.456;2023-04-03T14:06:51;22.94;12.85
22917;DHT22;11624;53.250;7.456;2023-04-03T14:09:20;23.08;11.97
22917;DHT22;11624;53.250;7.456;2023-04-03T14:11:52;22.66;12.30
22917;DHT22;11624;53.250;7.456;2023-04-03T14:14:23;22.61;13.39
22917;DHT22;11624;53.250;7.456;2023-04-03T14:16:54;22.52;12.68
22917;DHT22;11624;53.250;7.456;2023-04-03T14:19:27;22.54;13.71
22917;DHT22;11624;53.250;7.456;2023-04-03T14:21:57;22.78;12.90
22917;DHT22;11624;53.250;7.456;2023-04-03T14:24:26;22.73;12.88
22917;DHT22;11624;53.250;7.456;2023-04-03T14:26:54;22.67;13.07
22917;DHT22;11624;53.250;7.456;2023-04-03T14:29:24;22.76;12.39
22917;DHT22;11624;53.250;7.456;2023-04-03T14:31:52;22.42;12.14
22917;DHT22;11624;53.250;7.456;2023-04-03T14:34:41;22.27;13.26
22917;DHT22;11624;53.250;7.456;2023-04-03T14:37:11;22.27;12.51
22917;DHT22;11624;53.250;7.456;2023-04-03T14:39:40;22.32;13.15
22917;DHT22;11624;53.250;7.456;2023-04-03T14:42:12;22.08;12.89
22917;DHT22;11624;53.250;7.456;2023-04-03T14:44:42;21.63;13.58
22917;DHT22;11624;53.250;7.456;2023-04-03T14:47:12;21.43;14.22
22917;DHT22;11624;53.250;7.456;2023-04-03T14:49:57;21.16;13.64
22917;DHT22;11624;53.250;7.456;2023-04-03T14:52:27;20.83;13.59
22917;DHT22;11624;53.250;7.456;2023-04-03T14:54:57;20.70;14.45
22917;DHT22;11624;53.250;7.456;2023-04-03T14:57:27;20.91;14.77
22917;DHT22;11624;53.250;7.456;2023-04-03T14:59:57;20.95;14.28
22917;DHT22;11624;53.250;7.456;2023-04-03T15:02:29;20.71;14.57
22917;DHT22;11624;53.250;7.456;2023-04-03T15:04:58;20.54;14.14
22917;DHT22;11624;53.250;7.456;2023-04-03T15:07:28;20.34;14.72
22917;DHT22;11624;53.250;7.456;2023-04-03T15:09:57;20.14;14.84
22917;DHT22;11624;53.250;7.456;2023-04-03T15:12:25;20.11;15.37
22917;DHT22;11624;53.250;7.456;2023-04-03T15:14:53;20.31;15.36
22917;DHT22;11624;53.250;7.456;2023-04-03T15:17:30;20.35;16.50
22917;DHT22;11624;53.250;7.456;2023-04-03T15:19:58;20.30;16.16
22917;DHT22;11624;53.250;7.456;2023-04-03T15:22:27;20.13;16.69
22917;DHT22;11624;53.250;7.456;2023-04-03T15:24:55;19.99;16.87
22917;DHT22;11624;53.250;7.456;2023-04-03T15:27:23;19.92;16.61
22917;DHT22;11624;53.250;7.456;2023-04-03T15:29:51;19.96;16.61
22917;DHT22;11624;53.250;7.456;2023-04-03T15:32:19;19.92;16.52
22917;DHT22;11624;53.250;7.456;2023-04-03T15:34:48;19.96;16.19
22917;DHT22;11624;53.250;7.456;2023-04-03T15:37:19;19.86;16.37
22917;DHT22;11624;53.250;7.456;2023-04-03T15:39:47;19.75;16.48
22917;DHT22;11624;53.250;7.456;2023-04-03T15:42:15;19.72;16.15
22917;DHT22;11624;53.250;7.456;2023-04-03T15:44:45;19.66;16.11
22917;DHT22;11624;53.250;7.456;2023-04-03T15:47:13;19.72;16.37
22917;DHT22;11624;53.250;7.456;2023-04-03T15:49:42;19.79;16.83
22917;DHT22;11624;53.250;7.456;2023-04-03T15:52:11;19.71;17.48
22917;DHT22;11624;53.250;7.456;2023-04-03T15:54:39;19.74;16.81
22917;DHT22;11624;53.250;7.456;2023-04-03T15:57:07;19.79;16.76
22917;DHT22;11624;53.250;7.456;2023-04-03T15:59:35;19.68;17.66
22917;DHT22;11624;53.250;7.456;2023-04-03T16:02:06;19.57;17.03
22917;DHT22;11624;53.250;7.456;2023-04-03T16:04:35;19.45;16.61
22917;DHT22;11624;53.250;7.456;2023-04-03T16:07:04;19.32;16.96
22917;DHT22;11624;53.250;7.456;2023-04-03T16:09:34;19.18;17.86
22917;DHT22;11624;53.250;7.456;2023-04-03T16:12:03;19.05;17.70